»·PEaware :: N4269T KASE-KCOS

N4269T :: KASE-KCOS

FLIGHT INFORMATION

Flight Status: Arrived
Operator: Privately registered:
United States
More flights under this callsign
Pilot: Chuck O. (4337)
Aircraft: Unknown
(B60T)
More flights by this aircraft type
Origin: KASE Aspen-Pitkin Co/Sardy
United States
Destination: KCOS City Of Colorado Springs Mun
United States
More flights between these airports :: More routes between these airports
Route: LINDZ8 DBL V134 FQF V389 LUFSE
File this flight plan on PilotEdge
Remarks:
Altitude:
(Current/Filed)
17,000ft
Speed:
(Current/Filed)
260kts
Departed: 26-Nov-17 05:14 PM
Arrived: 26-Nov-17 06:08 PM
Distance/Time
Traveled:
103nm/0:54
Distance/Time
To Go:
Arrived

Flight Plot

Page will automatically refresh every two minutes.

Flight plan parsing failed; only flown route is shown


Map Options




Map Legend


Flown Route
Filed Route
Departure Airport
Arrival Airport
Navaid (VOR, NDB)
Fix

Horizontal Profiles

Position Reports

Time Latitude Longitude Heading Altitude Ground
Speed
26-Nov-17 17:05 39.222333 -106.866821 251 7823ft 0kts
26-Nov-17 17:06 39.222332 -106.866823 251 7823ft 0kts
26-Nov-17 17:07 39.222331 -106.866825 251 7823ft 0kts
26-Nov-17 17:08 39.222331 -106.866827 251 7823ft 0kts
26-Nov-17 17:09 39.222330 -106.866830 251 7823ft 0kts
26-Nov-17 17:10 39.222330 -106.866832 251 7823ft 0kts
26-Nov-17 17:11 39.222329 -106.866835 251 7823ft 0kts
26-Nov-17 17:12 39.222328 -106.866837 251 7823ft 0kts
26-Nov-17 17:13 39.220537 -106.866406 159 7823ft 10kts
26-Nov-17 17:14 39.217607 -106.865012 160 7823ft 11kts
26-Nov-17 17:15 39.214529 -106.863519 157 7823ft 13kts
26-Nov-17 17:16 39.212129 -106.862477 185 7823ft 0kts
26-Nov-17 17:17 39.212126 -106.862477 185 7823ft 0kts
26-Nov-17 17:18 39.211840 -106.862901 252 7823ft 12kts
26-Nov-17 17:19 39.224507 -106.869590 337 7966ft 123kts
26-Nov-17 17:20 39.256074 -106.886320 293 9700ft 132kts
26-Nov-17 17:21 39.257551 -106.936935 259 11261ft 150kts
26-Nov-17 17:22 39.273429 -106.984095 294 12793ft 150kts
26-Nov-17 17:23 39.299942 -107.022390 287 14478ft 135kts
26-Nov-17 17:24 39.317244 -107.066413 305 16218ft 146kts
26-Nov-17 17:25 39.352258 -107.101591 343 17048ft 203kts
26-Nov-17 17:26 39.391876 -107.038397 67 17042ft 273kts
26-Nov-17 17:27 39.423518 -106.945928 64 17012ft 290kts
26-Nov-17 17:28 39.448615 -106.845512 73 17006ft 295kts
26-Nov-17 17:29 39.467965 -106.742611 73 17015ft 292kts
26-Nov-17 17:30 39.487090 -106.640624 73 17010ft 292kts
26-Nov-17 17:31 39.506070 -106.538837 73 17022ft 290kts
26-Nov-17 17:32 39.524952 -106.437049 73 17071ft 289kts
26-Nov-17 17:33 39.543604 -106.335849 73 17166ft 289kts
26-Nov-17 17:34 39.559187 -106.250863 73 17192ft 291kts
26-Nov-17 17:35 39.580946 -106.131675 73 17202ft 292kts
26-Nov-17 17:36 39.595367 -106.027822 82 17203ft 295kts
26-Nov-17 17:37 39.601681 -105.939144 82 17198ft 295kts
26-Nov-17 17:38 39.610561 -105.815620 82 17193ft 293kts
26-Nov-17 17:39 39.616795 -105.728157 82 17184ft 292kts
26-Nov-17 17:40 39.624130 -105.623999 82 17350ft 287kts
26-Nov-17 17:41 39.632594 -105.502316 82 17319ft 294kts
26-Nov-17 17:42 39.638713 -105.413110 82 17220ft 298kts
26-Nov-17 17:43 39.645948 -105.306234 82 17158ft 297kts
26-Nov-17 17:44 39.653471 -105.193563 82 17069ft 298kts
26-Nov-17 17:45 39.659350 -105.104288 82 17034ft 295kts
26-Nov-17 17:46 39.666211 -104.998691 81 17031ft 293kts
26-Nov-17 17:47 39.672410 -104.902720 82 16381ft 302kts
26-Nov-17 17:48 39.678709 -104.800565 82 15120ft 264kts
26-Nov-17 17:49 39.684344 -104.710461 82 14015ft 242kts
26-Nov-17 17:50 39.678540 -104.627576 124 12908ft 229kts
26-Nov-17 17:51 39.626428 -104.589757 164 11818ft 215kts
26-Nov-17 17:52 39.570891 -104.561907 161 11044ft 204kts
26-Nov-17 17:53 39.521160 -104.536894 161 11055ft 184kts
26-Nov-17 17:54 39.473109 -104.512929 162 11071ft 186kts
26-Nov-17 17:55 39.424550 -104.488798 162 11084ft 187kts
26-Nov-17 17:56 39.375999 -104.464722 162 11094ft 187kts
26-Nov-17 17:57 39.327321 -104.440619 162 11100ft 187kts
26-Nov-17 17:58 39.278368 -104.416416 162 11103ft 188kts
26-Nov-17 17:59 39.229742 -104.392377 162 10846ft 187kts
26-Nov-17 18:00 39.189393 -104.412083 226 10084ft 146kts
26-Nov-17 18:01 39.157868 -104.445750 220 10037ft 159kts
26-Nov-17 18:02 39.122632 -104.484100 220 10031ft 169kts
26-Nov-17 18:03 39.086275 -104.523704 220 10032ft 171kts
26-Nov-17 18:04 39.052149 -104.565987 246 9926ft 177kts
26-Nov-17 18:05 39.056827 -104.630336 259 9531ft 172kts
26-Nov-17 18:06 39.051945 -104.686350 264 9519ft 148kts
26-Nov-17 18:07 39.021779 -104.715618 169 8786ft 160kts
26-Nov-17 18:08 38.980175 -104.716207 178 8708ft 136kts
26-Nov-17 18:09 38.941760 -104.715741 180 8562ft 148kts
26-Nov-17 18:10 38.900162 -104.715788 178 7708ft 151kts
26-Nov-17 18:11 38.858200 -104.715796 177 6880ft 139kts
26-Nov-17 18:12 38.823768 -104.715899 177 6174ft 108kts
26-Nov-17 18:13 38.806672 -104.715978 181 6129ft 29kts
26-Nov-17 18:14 38.805323 -104.716814 174 6129ft 14kts
26-Nov-17 18:15 38.804126 -104.716777 182 6129ft 0kts
26-Nov-17 18:16 38.803776 -104.716898 247 6129ft 5kts
26-Nov-17 18:17 38.804790 -104.718618 271 6129ft 4kts

Navigation Log

Ident Type
Flight plan parsing failed, navigation log unavailable